Portada
METAR-TAF:

METAR-TAF

Aeroports :

Malé, Maldives

latitud: 04-12N, longitud: 073-32E, altitud: 2 m

Observació

L'informe es va fer fa 1 hora i 3 minuts, a les 12:00 UTC
Vent 6 kt del Est
Temperatura 30°C
Humitat 70%
Pressió 1008 hPa
Visibilitat 10 km o més
Núvols disperses a una alçada de 1800 ft, Cumulus congestus.
Cel ennuvolat a una alçada de 27000 ft

METAR: VRMM 291200Z 09006KT 9999 SCT018TCU BKN270 30/24 Q1008 NOSIG

Hora: 18:03 (13:03 UTC)

Pronòstic

L'informe es va fer fa 2 hores i 3 minuts, a les 11:00 UTC
Pronòstic vàlid del 29 a les 12 UTC al 30 a les 18 UTC
Vent 8 kt del Est
Visibilitat 10 km o més
Escasses núvols a una alçada de 1800 ft
Temporalment
l' 29 a les 12 UTC al 29 a les 18 UTC
Escasses núvols a una alçada de 1800 ft, Cumulonimbus.

TAF: VRMM 291100Z 2912/3018 08008KT 9999 FEW018 TEMPO 2912/2918 FEW018CB

Observacions i pronòstics meteorològics de més de 4000 aeroports (METAR i TAF).

Les estacions disponibles són els punts grocs i vermells al mapa.

Posi el ratolí al punt desitjat per veure el nom de l'estació.

Feu clic per veure les observacions i els pronòstics meteorològics.

Per canviar el mapa: feu clic els botons verds amb una creu de color negre per apropar; al botó verd amb un guió per allunyar la imatge; o en les fletxes verdes per a mapes adjacents.


METAR-TAF: